Eastsound, WA (98245)

3:03 PM PST on February 13, 2016 (GMT -0800)
Westsound | | Change Station
CLOSE
Current Station
Personal Weather Station
Location: Eastsound, WA
Elevation: 180 ft
Nearby Weather Stations

Elev 180 ft 48.63 °N, 122.95 °W | Updated 4 minutes ago

Light Rain
Light Rain
48.1 °F
Feels Like 43 °F
N
11.2
Wind Variable Wind from SSE
Gusts 11.2 mph

Today
High -- | Low -- °F
--% Chance of Precip.
Yesterday
High -- | Low -- °F
Precip. -- in
Pressure 30.05 in
Visibility 7.0 miles
Clouds Mostly Cloudy 2100 ft
Mostly Cloudy 2700 ft
Windchill 43 °F
Dew Point 44 °F
Humidity 87%
Rainfall 0.00 in
Snow Depth Not available.
7:23 AM 5:28 PM
Waxing Crescent, 35% visible
METAR KORS 132255Z AUTO 17006KT 030V040 7SM -RA BKN021 BKN027 09/06 A3005 RMK AO2
Pressure 30.05 in
Visibility 7.0 miles
Clouds Mostly Cloudy 2100 ft
Mostly Cloudy 2700 ft
Windchill 43 °F
Dew Point 44 °F
Humidity 87%
Rainfall 0.00 in
Snow Depth Not available.
7:23 AM 5:28 PM
Waxing Crescent, 35% visible
METAR KORS 132255Z AUTO 17006KT 030V040 7SM -RA BKN021 BKN027 09/06 A3005 RMK AO2

10-Day Weather Forecast

Almanac

Astronomy

Feb. 13, 2016 Rise Set
Actual Time
Civil Twilight
Nautical Twilight
Astronomical Twilight
Moon
Length of Visible Light
Length of Day
Tomorrow will be .
, % of the Moon is Illuminated

Today's Extremes

State Highs State Lows

Community

WunderPhotos

Upload Photos

1,892,692 photos uploaded!

WunderBlog® & News

Nearby

Air Quality

  Air Quality AQ Index Pollutant
Not available.

Snow Depth

Station Depth Elevation

Earthquake Activity

City Distance Mag. Time & Date
Minimum magnitude displayed is 2.5.

Coastal Water Temperatures

Place Temperature

Stations

Nearby Weather Stations

Station Location Temp. Windchill Dew Point Humidity Wind Precip. Elev Updated Type
                   

Watches & Warnings

There are currently no watches in effect.